sensor_id;sensor_type;location;lat;lon;timestamp;P1;durP1;ratioP1;P2;durP2;ratioP2
51814;SDS011;37874;53.158;6.766;2023-05-31T00:01:55;3.08;;;0.80;;
51814;SDS011;37874;53.158;6.766;2023-05-31T00:04:21;2.03;;;0.80;;
51814;SDS011;37874;53.158;6.766;2023-05-31T00:06:46;1.52;;;0.90;;
51814;SDS011;37874;53.158;6.766;2023-05-31T00:09:12;1.52;;;0.90;;
51814;SDS011;37874;53.158;6.766;2023-05-31T00:11:38;1.50;;;0.80;;
51814;SDS011;37874;53.158;6.766;2023-05-31T00:14:03;1.70;;;0.80;;
51814;SDS011;37874;53.158;6.766;2023-05-31T00:16:29;1.33;;;0.70;;
51814;SDS011;37874;53.158;6.766;2023-05-31T00:18:55;1.98;;;0.80;;
51814;SDS011;37874;53.158;6.766;2023-05-31T00:21:20;1.30;;;0.80;;
51814;SDS011;37874;53.158;6.766;2023-05-31T00:23:46;1.35;;;0.70;;
51814;SDS011;37874;53.158;6.766;2023-05-31T00:26:12;1.45;;;0.70;;
51814;SDS011;37874;53.158;6.766;2023-05-31T00:28:38;2.08;;;0.90;;
51814;SDS011;37874;53.158;6.766;2023-05-31T00:31:03;1.17;;;0.60;;
51814;SDS011;37874;53.158;6.766;2023-05-31T00:33:29;1.98;;;0.95;;
51814;SDS011;37874;53.158;6.766;2023-05-31T00:35:55;2.33;;;0.90;;
51814;SDS011;37874;53.158;6.766;2023-05-31T00:38:20;1.48;;;0.85;;
51814;SDS011;37874;53.158;6.766;2023-05-31T00:40:46;1.80;;;0.88;;
51814;SDS011;37874;53.158;6.766;2023-05-31T00:43:12;1.23;;;0.63;;
51814;SDS011;37874;53.158;6.766;2023-05-31T00:45:38;1.13;;;0.68;;
51814;SDS011;37874;53.158;6.766;2023-05-31T00:48:04;1.67;;;0.90;;
51814;SDS011;37874;53.158;6.766;2023-05-31T00:50:30;2.20;;;0.90;;
51814;SDS011;37874;53.158;6.766;2023-05-31T00:52:56;1.88;;;0.90;;
51814;SDS011;37874;53.158;6.766;2023-05-31T00:55:23;1.95;;;0.85;;
51814;SDS011;37874;53.158;6.766;2023-05-31T00:57:49;1.23;;;0.73;;
51814;SDS011;37874;53.158;6.766;2023-05-31T01:00:15;1.73;;;0.90;;
51814;SDS011;37874;53.158;6.766;2023-05-31T01:02:41;1.50;;;0.70;;
51814;SDS011;37874;53.158;6.766;2023-05-31T01:05:08;1.77;;;0.80;;
51814;SDS011;37874;53.158;6.766;2023-05-31T01:07:34;1.25;;;0.75;;
51814;SDS011;37874;53.158;6.766;2023-05-31T01:10:01;1.42;;;0.80;;
51814;SDS011;37874;53.158;6.766;2023-05-31T01:17:35;1.10;;;0.70;;
51814;SDS011;37874;53.158;6.766;2023-05-31T01:20:10;1.40;;;0.80;;
51814;SDS011;37874;53.158;6.766;2023-05-31T01:22:45;1.10;;;0.70;;
51814;SDS011;37874;53.158;6.766;2023-05-31T01:28:22;2.13;;;0.82;;
51814;SDS011;37874;53.158;6.766;2023-05-31T01:30:50;1.60;;;0.80;;
51814;SDS011;37874;53.158;6.766;2023-05-31T01:33:17;1.88;;;0.80;;
51814;SDS011;37874;53.158;6.766;2023-05-31T01:35:43;1.30;;;0.70;;
51814;SDS011;37874;53.158;6.766;2023-05-31T01:38:09;1.70;;;0.95;;
51814;SDS011;37874;53.158;6.766;2023-05-31T01:40:35;1.92;;;0.85;;
51814;SDS011;37874;53.158;6.766;2023-05-31T01:43:02;1.52;;;0.70;;
51814;SDS011;37874;53.158;6.766;2023-05-31T01:45:29;1.88;;;0.80;;
51814;SDS011;37874;53.158;6.766;2023-05-31T01:47:57;1.20;;;0.70;;
51814;SDS011;37874;53.158;6.766;2023-05-31T01:50:27;2.03;;;0.88;;
51814;SDS011;37874;53.158;6.766;2023-05-31T01:52:53;1.42;;;0.90;;
51814;SDS011;37874;53.158;6.766;2023-05-31T01:55:19;1.70;;;0.80;;
51814;SDS011;37874;53.158;6.766;2023-05-31T01:57:45;1.30;;;0.80;;
51814;SDS011;37874;53.158;6.766;2023-05-31T02:00:12;1.45;;;0.77;;
51814;SDS011;37874;53.158;6.766;2023-05-31T02:02:43;1.60;;;0.60;;
51814;SDS011;37874;53.158;6.766;2023-05-31T02:05:10;2.13;;;0.80;;
51814;SDS011;37874;53.158;6.766;2023-05-31T02:07:40;2.10;;;0.93;;
51814;SDS011;37874;53.158;6.766;2023-05-31T02:10:06;1.33;;;0.73;;
51814;SDS011;37874;53.158;6.766;2023-05-31T02:12:33;1.60;;;0.70;;
51814;SDS011;37874;53.158;6.766;2023-05-31T02:14:59;2.17;;;0.90;;
51814;SDS011;37874;53.158;6.766;2023-05-31T02:17:24;1.85;;;1.00;;
51814;SDS011;37874;53.158;6.766;2023-05-31T02:19:51;1.35;;;0.88;;
51814;SDS011;37874;53.158;6.766;2023-05-31T02:22:17;1.27;;;0.80;;
51814;SDS011;37874;53.158;6.766;2023-05-31T02:24:43;1.58;;;0.90;;
51814;SDS011;37874;53.158;6.766;2023-05-31T02:27:08;1.85;;;0.90;;
51814;SDS011;37874;53.158;6.766;2023-05-31T02:29:35;2.47;;;0.90;;
51814;SDS011;37874;53.158;6.766;2023-05-31T02:32:00;1.70;;;0.90;;
51814;SDS011;37874;53.158;6.766;2023-05-31T02:34:26;1.60;;;0.80;;
51814;SDS011;37874;53.158;6.766;2023-05-31T02:36:52;1.50;;;0.80;;
51814;SDS011;37874;53.158;6.766;2023-05-31T02:39:18;1.67;;;0.77;;
51814;SDS011;37874;53.158;6.766;2023-05-31T02:41:44;1.73;;;1.00;;
51814;SDS011;37874;53.158;6.766;2023-05-31T02:44:09;1.52;;;0.75;;
51814;SDS011;37874;53.158;6.766;2023-05-31T02:46:35;2.22;;;0.90;;
51814;SDS011;37874;53.158;6.766;2023-05-31T02:49:01;1.50;;;0.80;;
51814;SDS011;37874;53.158;6.766;2023-05-31T02:51:27;1.80;;;0.90;;
51814;SDS011;37874;53.158;6.766;2023-05-31T02:53:53;1.30;;;0.75;;
51814;SDS011;37874;53.158;6.766;2023-05-31T02:56:18;1.92;;;0.82;;
51814;SDS011;37874;53.158;6.766;2023-05-31T02:58:45;1.58;;;0.70;;
51814;SDS011;37874;53.158;6.766;2023-05-31T03:01:11;1.88;;;1.00;;
51814;SDS011;37874;53.158;6.766;2023-05-31T03:03:38;1.98;;;0.82;;
51814;SDS011;37874;53.158;6.766;2023-05-31T03:06:05;1.75;;;1.00;;
51814;SDS011;37874;53.158;6.766;2023-05-31T03:08:30;2.38;;;1.08;;
51814;SDS011;37874;53.158;6.766;2023-05-31T03:10:56;2.08;;;0.85;;
51814;SDS011;37874;53.158;6.766;2023-05-31T03:13:22;1.50;;;0.80;;
51814;SDS011;37874;53.158;6.766;2023-05-31T03:15:47;1.60;;;0.80;;
51814;SDS011;37874;53.158;6.766;2023-05-31T03:18:13;1.70;;;0.90;;
51814;SDS011;37874;53.158;6.766;2023-05-31T03:20:39;1.50;;;0.80;;
51814;SDS011;37874;53.158;6.766;2023-05-31T03:23:04;1.60;;;0.85;;
51814;SDS011;37874;53.158;6.766;2023-05-31T03:25:31;2.13;;;1.00;;
51814;SDS011;37874;53.158;6.766;2023-05-31T03:27:57;2.28;;;0.90;;
51814;SDS011;37874;53.158;6.766;2023-05-31T03:30:23;1.98;;;1.00;;
51814;SDS011;37874;53.158;6.766;2023-05-31T03:32:49;1.42;;;0.73;;
51814;SDS011;37874;53.158;6.766;2023-05-31T03:35:15;2.22;;;1.00;;
51814;SDS011;37874;53.158;6.766;2023-05-31T03:37:41;1.55;;;0.75;;
51814;SDS011;37874;53.158;6.766;2023-05-31T03:40:08;2.95;;;0.93;;
51814;SDS011;37874;53.158;6.766;2023-05-31T03:42:34;1.77;;;0.85;;
51814;SDS011;37874;53.158;6.766;2023-05-31T03:45:00;1.67;;;0.90;;
51814;SDS011;37874;53.158;6.766;2023-05-31T03:47:26;2.78;;;1.20;;
51814;SDS011;37874;53.158;6.766;2023-05-31T03:49:52;1.90;;;0.80;;
51814;SDS011;37874;53.158;6.766;2023-05-31T03:52:17;2.30;;;0.90;;
51814;SDS011;37874;53.158;6.766;2023-05-31T03:54:43;1.80;;;0.80;;
51814;SDS011;37874;53.158;6.766;2023-05-31T03:57:09;1.60;;;0.80;;
51814;SDS011;37874;53.158;6.766;2023-05-31T03:59:35;1.85;;;0.90;;
51814;SDS011;37874;53.158;6.766;2023-05-31T04:02:00;2.10;;;0.82;;
51814;SDS011;37874;53.158;6.766;2023-05-31T04:04:27;1.83;;;0.80;;
51814;SDS011;37874;53.158;6.766;2023-05-31T04:06:53;2.17;;;0.80;;
51814;SDS011;37874;53.158;6.766;2023-05-31T04:09:18;3.10;;;1.02;;
51814;SDS011;37874;53.158;6.766;2023-05-31T04:11:45;1.95;;;0.80;;
51814;SDS011;37874;53.158;6.766;2023-05-31T04:14:11;2.38;;;1.20;;
51814;SDS011;37874;53.158;6.766;2023-05-31T04:16:37;1.35;;;0.80;;
51814;SDS011;37874;53.158;6.766;2023-05-31T04:19:03;1.70;;;0.82;;
51814;SDS011;37874;53.158;6.766;2023-05-31T04:21:28;2.28;;;1.17;;
51814;SDS011;37874;53.158;6.766;2023-05-31T04:23:54;2.63;;;1.20;;
51814;SDS011;37874;53.158;6.766;2023-05-31T04:26:20;2.00;;;1.00;;
51814;SDS011;37874;53.158;6.766;2023-05-31T04:28:46;2.47;;;1.10;;
51814;SDS011;37874;53.158;6.766;2023-05-31T04:31:18;1.95;;;1.00;;
51814;SDS011;37874;53.158;6.766;2023-05-31T04:33:44;2.78;;;0.98;;
51814;SDS011;37874;53.158;6.766;2023-05-31T04:36:10;1.80;;;1.00;;
51814;SDS011;37874;53.158;6.766;2023-05-31T04:38:35;1.90;;;0.80;;
51814;SDS011;37874;53.158;6.766;2023-05-31T04:41:01;2.00;;;1.00;;
51814;SDS011;37874;53.158;6.766;2023-05-31T04:43:28;2.20;;;1.00;;
51814;SDS011;37874;53.158;6.766;2023-05-31T04:45:54;2.90;;;0.90;;
51814;SDS011;37874;53.158;6.766;2023-05-31T04:48:20;2.33;;;0.90;;
51814;SDS011;37874;53.158;6.766;2023-05-31T04:50:47;1.83;;;0.93;;
51814;SDS011;37874;53.158;6.766;2023-05-31T04:53:13;2.75;;;0.90;;
51814;SDS011;37874;53.158;6.766;2023-05-31T04:55:39;2.05;;;0.98;;
51814;SDS011;37874;53.158;6.766;2023-05-31T04:58:05;2.05;;;0.90;;
51814;SDS011;37874;53.158;6.766;2023-05-31T05:00:33;2.38;;;1.00;;
51814;SDS011;37874;53.158;6.766;2023-05-31T05:02:59;3.20;;;1.08;;
51814;SDS011;37874;53.158;6.766;2023-05-31T05:05:26;2.22;;;1.05;;
51814;SDS011;37874;53.158;6.766;2023-05-31T05:07:51;1.95;;;0.90;;
51814;SDS011;37874;53.158;6.766;2023-05-31T05:10:17;2.25;;;1.00;;
51814;SDS011;37874;53.158;6.766;2023-05-31T05:12:44;2.10;;;1.00;;
51814;SDS011;37874;53.158;6.766;2023-05-31T05:15:10;1.83;;;0.90;;
51814;SDS011;37874;53.158;6.766;2023-05-31T05:17:35;2.30;;;1.10;;
51814;SDS011;37874;53.158;6.766;2023-05-31T05:20:01;2.20;;;1.10;;
51814;SDS011;37874;53.158;6.766;2023-05-31T05:22:30;1.88;;;0.90;;
51814;SDS011;37874;53.158;6.766;2023-05-31T05:24:55;1.48;;;0.82;;
51814;SDS011;37874;53.158;6.766;2023-05-31T05:27:21;2.30;;;1.00;;
51814;SDS011;37874;53.158;6.766;2023-05-31T05:29:47;1.40;;;0.82;;
51814;SDS011;37874;53.158;6.766;2023-05-31T05:32:13;2.15;;;1.08;;
51814;SDS011;37874;53.158;6.766;2023-05-31T05:34:38;2.15;;;0.82;;
51814;SDS011;37874;53.158;6.766;2023-05-31T05:37:04;2.88;;;1.02;;
51814;SDS011;37874;53.158;6.766;2023-05-31T05:39:30;2.03;;;1.00;;
51814;SDS011;37874;53.158;6.766;2023-05-31T05:41:56;4.22;;;1.13;;
51814;SDS011;37874;53.158;6.766;2023-05-31T05:44:22;2.92;;;1.20;;
51814;SDS011;37874;53.158;6.766;2023-05-31T05:46:47;3.80;;;1.20;;
51814;SDS011;37874;53.158;6.766;2023-05-31T05:49:13;2.08;;;1.13;;
51814;SDS011;37874;53.158;6.766;2023-05-31T05:51:38;2.63;;;1.20;;
51814;SDS011;37874;53.158;6.766;2023-05-31T05:54:04;2.72;;;0.93;;
51814;SDS011;37874;53.158;6.766;2023-05-31T05:56:30;4.60;;;1.50;;
51814;SDS011;37874;53.158;6.766;2023-05-31T05:58:56;3.85;;;1.05;;
51814;SDS011;37874;53.158;6.766;2023-05-31T06:01:22;2.60;;;1.08;;
51814;SDS011;37874;53.158;6.766;2023-05-31T06:03:52;2.40;;;0.85;;
51814;SDS011;37874;53.158;6.766;2023-05-31T06:06:17;2.58;;;0.90;;
51814;SDS011;37874;53.158;6.766;2023-05-31T06:08:44;2.58;;;1.08;;
51814;SDS011;37874;53.158;6.766;2023-05-31T06:11:10;2.38;;;0.93;;
51814;SDS011;37874;53.158;6.766;2023-05-31T06:13:36;3.95;;;1.10;;
51814;SDS011;37874;53.158;6.766;2023-05-31T06:16:03;2.13;;;0.93;;
51814;SDS011;37874;53.158;6.766;2023-05-31T06:18:29;4.78;;;1.45;;
51814;SDS011;37874;53.158;6.766;2023-05-31T06:20:55;4.43;;;1.50;;
51814;SDS011;37874;53.158;6.766;2023-05-31T06:23:21;2.95;;;1.15;;
51814;SDS011;37874;53.158;6.766;2023-05-31T06:25:46;6.93;;;1.35;;
51814;SDS011;37874;53.158;6.766;2023-05-31T06:28:12;2.70;;;1.10;;
51814;SDS011;37874;53.158;6.766;2023-05-31T06:30:38;3.50;;;1.38;;
51814;SDS011;37874;53.158;6.766;2023-05-31T06:33:03;5.93;;;1.45;;
51814;SDS011;37874;53.158;6.766;2023-05-31T06:35:29;4.78;;;1.80;;
51814;SDS011;37874;53.158;6.766;2023-05-31T06:37:55;5.10;;;1.20;;
51814;SDS011;37874;53.158;6.766;2023-05-31T06:40:21;4.00;;;1.45;;
51814;SDS011;37874;53.158;6.766;2023-05-31T06:42:47;2.95;;;1.23;;
51814;SDS011;37874;53.158;6.766;2023-05-31T06:45:13;4.50;;;1.30;;
51814;SDS011;37874;53.158;6.766;2023-05-31T06:47:38;5.28;;;1.67;;
51814;SDS011;37874;53.158;6.766;2023-05-31T06:50:05;5.18;;;1.25;;
51814;SDS011;37874;53.158;6.766;2023-05-31T06:52:31;4.18;;;1.10;;
51814;SDS011;37874;53.158;6.766;2023-05-31T06:54:56;3.72;;;1.10;;
51814;SDS011;37874;53.158;6.766;2023-05-31T06:57:22;3.92;;;0.95;;
51814;SDS011;37874;53.158;6.766;2023-05-31T06:59:48;3.22;;;1.10;;
51814;SDS011;37874;53.158;6.766;2023-05-31T07:02:13;4.30;;;1.08;;
51814;SDS011;37874;53.158;6.766;2023-05-31T07:04:39;5.43;;;1.60;;
51814;SDS011;37874;53.158;6.766;2023-05-31T07:07:05;5.05;;;1.60;;
51814;SDS011;37874;53.158;6.766;2023-05-31T07:09:34;7.00;;;1.67;;
51814;SDS011;37874;53.158;6.766;2023-05-31T07:12:00;5.88;;;1.48;;
51814;SDS011;37874;53.158;6.766;2023-05-31T07:14:29;9.40;;;1.60;;
51814;SDS011;37874;53.158;6.766;2023-05-31T07:16:55;6.13;;;1.27;;
51814;SDS011;37874;53.158;6.766;2023-05-31T07:19:21;8.00;;;1.70;;
51814;SDS011;37874;53.158;6.766;2023-05-31T07:21:46;4.97;;;1.40;;
51814;SDS011;37874;53.158;6.766;2023-05-31T07:24:12;6.70;;;1.52;;
51814;SDS011;37874;53.158;6.766;2023-05-31T07:26:37;6.35;;;1.50;;
51814;SDS011;37874;53.158;6.766;2023-05-31T07:29:03;6.18;;;1.73;;
51814;SDS011;37874;53.158;6.766;2023-05-31T07:31:29;6.45;;;1.20;;
51814;SDS011;37874;53.158;6.766;2023-05-31T07:33:54;4.82;;;1.35;;
51814;SDS011;37874;53.158;6.766;2023-05-31T07:36:20;5.40;;;1.50;;
51814;SDS011;37874;53.158;6.766;2023-05-31T07:38:50;4.95;;;1.58;;
51814;SDS011;37874;53.158;6.766;2023-05-31T07:41:17;4.78;;;1.50;;
51814;SDS011;37874;53.158;6.766;2023-05-31T07:43:43;6.70;;;1.27;;
51814;SDS011;37874;53.158;6.766;2023-05-31T07:46:10;5.18;;;1.30;;
51814;SDS011;37874;53.158;6.766;2023-05-31T07:48:36;7.82;;;1.10;;
51814;SDS011;37874;53.158;6.766;2023-05-31T07:51:02;5.13;;;1.13;;
51814;SDS011;37874;53.158;6.766;2023-05-31T07:53:28;4.63;;;1.20;;
51814;SDS011;37874;53.158;6.766;2023-05-31T07:55:53;3.88;;;1.00;;
51814;SDS011;37874;53.158;6.766;2023-05-31T07:58:19;5.15;;;0.70;;
51814;SDS011;37874;53.158;6.766;2023-05-31T08:00:45;4.68;;;1.10;;
51814;SDS011;37874;53.158;6.766;2023-05-31T08:03:11;4.68;;;1.30;;
51814;SDS011;37874;53.158;6.766;2023-05-31T08:05:37;4.28;;;1.00;;
51814;SDS011;37874;53.158;6.766;2023-05-31T08:08:02;5.32;;;1.77;;
51814;SDS011;37874;53.158;6.766;2023-05-31T08:10:30;5.80;;;1.60;;
51814;SDS011;37874;53.158;6.766;2023-05-31T08:12:56;5.75;;;1.50;;
51814;SDS011;37874;53.158;6.766;2023-05-31T08:15:22;4.32;;;1.23;;
51814;SDS011;37874;53.158;6.766;2023-05-31T08:17:47;6.88;;;1.33;;
51814;SDS011;37874;53.158;6.766;2023-05-31T08:20:13;9.05;;;1.55;;
51814;SDS011;37874;53.158;6.766;2023-05-31T08:22:41;5.43;;;1.35;;
51814;SDS011;37874;53.158;6.766;2023-05-31T08:25:07;4.13;;;1.50;;
51814;SDS011;37874;53.158;6.766;2023-05-31T08:27:33;6.85;;;1.63;;
51814;SDS011;37874;53.158;6.766;2023-05-31T08:30:00;5.22;;;1.63;;
51814;SDS011;37874;53.158;6.766;2023-05-31T08:32:25;4.50;;;1.73;;
51814;SDS011;37874;53.158;6.766;2023-05-31T08:34:51;4.50;;;1.40;;
51814;SDS011;37874;53.158;6.766;2023-05-31T08:37:17;4.72;;;1.60;;
51814;SDS011;37874;53.158;6.766;2023-05-31T08:39:45;8.05;;;1.45;;
51814;SDS011;37874;53.158;6.766;2023-05-31T08:42:15;8.73;;;1.95;;
51814;SDS011;37874;53.158;6.766;2023-05-31T08:44:55;6.40;;;1.40;;
51814;SDS011;37874;53.158;6.766;2023-05-31T08:47:22;6.45;;;1.60;;
51814;SDS011;37874;53.158;6.766;2023-05-31T08:49:53;7.07;;;1.67;;
51814;SDS011;37874;53.158;6.766;2023-05-31T08:52:20;4.40;;;1.48;;
51814;SDS011;37874;53.158;6.766;2023-05-31T08:54:46;7.60;;;2.05;;
51814;SDS011;37874;53.158;6.766;2023-05-31T08:57:13;6.35;;;1.52;;
51814;SDS011;37874;53.158;6.766;2023-05-31T08:59:39;3.42;;;1.38;;
51814;SDS011;37874;53.158;6.766;2023-05-31T09:02:06;8.23;;;1.70;;
51814;SDS011;37874;53.158;6.766;2023-05-31T09:04:35;6.45;;;1.60;;
51814;SDS011;37874;53.158;6.766;2023-05-31T09:07:01;7.93;;;1.75;;
51814;SDS011;37874;53.158;6.766;2023-05-31T09:09:27;6.88;;;2.00;;
51814;SDS011;37874;53.158;6.766;2023-05-31T09:11:52;7.70;;;1.88;;
51814;SDS011;37874;53.158;6.766;2023-05-31T09:14:18;5.00;;;1.45;;
51814;SDS011;37874;53.158;6.766;2023-05-31T09:16:44;7.15;;;1.55;;
51814;SDS011;37874;53.158;6.766;2023-05-31T09:19:10;3.78;;;1.13;;
51814;SDS011;37874;53.158;6.766;2023-05-31T09:21:39;8.55;;;1.55;;
51814;SDS011;37874;53.158;6.766;2023-05-31T09:24:06;7.82;;;1.52;;
51814;SDS011;37874;53.158;6.766;2023-05-31T09:26:32;5.82;;;1.67;;
51814;SDS011;37874;53.158;6.766;2023-05-31T09:28:58;5.85;;;1.70;;
51814;SDS011;37874;53.158;6.766;2023-05-31T09:31:24;6.28;;;1.75;;
51814;SDS011;37874;53.158;6.766;2023-05-31T09:33:51;5.32;;;1.38;;
51814;SDS011;37874;53.158;6.766;2023-05-31T09:36:37;4.60;;;1.60;;
51814;SDS011;37874;53.158;6.766;2023-05-31T09:39:07;5.78;;;1.77;;
51814;SDS011;37874;53.158;6.766;2023-05-31T09:41:33;5.63;;;1.63;;
51814;SDS011;37874;53.158;6.766;2023-05-31T09:44:00;6.20;;;1.80;;
51814;SDS011;37874;53.158;6.766;2023-05-31T09:46:26;8.80;;;1.45;;
51814;SDS011;37874;53.158;6.766;2023-05-31T09:51:31;5.20;;;1.45;;
51814;SDS011;37874;53.158;6.766;2023-05-31T09:53:59;7.93;;;1.80;;
51814;SDS011;37874;53.158;6.766;2023-05-31T09:56:35;9.75;;;2.55;;
51814;SDS011;37874;53.158;6.766;2023-05-31T09:59:01;8.95;;;3.30;;
51814;SDS011;37874;53.158;6.766;2023-05-31T10:01:31;15.52;;;4.53;;
51814;SDS011;37874;53.158;6.766;2023-05-31T10:03:58;15.07;;;5.20;;
51814;SDS011;37874;53.158;6.766;2023-05-31T10:06:28;19.05;;;5.53;;
51814;SDS011;37874;53.158;6.766;2023-05-31T10:08:54;13.77;;;5.25;;
51814;SDS011;37874;53.158;6.766;2023-05-31T10:11:26;16.42;;;4.95;;
51814;SDS011;37874;53.158;6.766;2023-05-31T10:13:59;11.15;;;3.83;;
51814;SDS011;37874;53.158;6.766;2023-05-31T10:16:28;8.70;;;3.35;;
51814;SDS011;37874;53.158;6.766;2023-05-31T10:19:01;8.13;;;2.65;;
51814;SDS011;37874;53.158;6.766;2023-05-31T10:21:29;9.75;;;2.45;;
51814;SDS011;37874;53.158;6.766;2023-05-31T10:24:02;6.22;;;2.10;;
51814;SDS011;37874;53.158;6.766;2023-05-31T10:27:21;6.57;;;1.90;;
51814;SDS011;37874;53.158;6.766;2023-05-31T10:29:22;7.82;;;2.20;;
51814;SDS011;37874;53.158;6.766;2023-05-31T10:31:50;6.15;;;2.00;;
51814;SDS011;37874;53.158;6.766;2023-05-31T10:34:23;5.72;;;1.67;;
51814;SDS011;37874;53.158;6.766;2023-05-31T10:36:50;5.90;;;1.60;;
51814;SDS011;37874;53.158;6.766;2023-05-31T10:39:31;5.03;;;1.70;;
51814;SDS011;37874;53.158;6.766;2023-05-31T10:47:42;5.25;;;1.42;;
51814;SDS011;37874;53.158;6.766;2023-05-31T10:50:18;6.20;;;1.75;;
51814;SDS011;37874;53.158;6.766;2023-05-31T10:52:47;5.85;;;1.60;;
51814;SDS011;37874;53.158;6.766;2023-05-31T10:57:53;6.22;;;1.98;;
51814;SDS011;37874;53.158;6.766;2023-05-31T11:00:20;3.88;;;1.30;;
51814;SDS011;37874;53.158;6.766;2023-05-31T11:02:48;6.22;;;1.63;;
51814;SDS011;37874;53.158;6.766;2023-05-31T11:07:47;4.82;;;1.33;;
51814;SDS011;37874;53.158;6.766;2023-05-31T11:10:26;5.30;;;1.42;;
51814;SDS011;37874;53.158;6.766;2023-05-31T11:12:55;4.13;;;1.20;;
51814;SDS011;37874;53.158;6.766;2023-05-31T11:15:22;5.07;;;1.35;;
51814;SDS011;37874;53.158;6.766;2023-05-31T11:18:07;4.63;;;1.40;;
51814;SDS011;37874;53.158;6.766;2023-05-31T11:20:34;5.22;;;1.50;;
51814;SDS011;37874;53.158;6.766;2023-05-31T11:34:24;5.05;;;1.20;;
51814;SDS011;37874;53.158;6.766;2023-05-31T11:36:51;7.38;;;1.50;;
51814;SDS011;37874;53.158;6.766;2023-05-31T11:39:17;6.15;;;1.67;;
51814;SDS011;37874;53.158;6.766;2023-05-31T11:41:46;5.07;;;1.70;;
51814;SDS011;37874;53.158;6.766;2023-05-31T11:44:12;6.88;;;1.65;;
51814;SDS011;37874;53.158;6.766;2023-05-31T11:46:41;5.85;;;1.75;;
51814;SDS011;37874;53.158;6.766;2023-05-31T11:49:12;4.90;;;1.55;;
51814;SDS011;37874;53.158;6.766;2023-05-31T11:51:41;6.10;;;1.60;;
51814;SDS011;37874;53.158;6.766;2023-05-31T11:54:08;5.10;;;1.70;;
51814;SDS011;37874;53.158;6.766;2023-05-31T11:56:37;4.95;;;1.45;;
51814;SDS011;37874;53.158;6.766;2023-05-31T11:59:02;6.30;;;2.10;;
51814;SDS011;37874;53.158;6.766;2023-05-31T12:01:34;3.97;;;1.60;;
51814;SDS011;37874;53.158;6.766;2023-05-31T12:04:01;4.38;;;1.42;;
51814;SDS011;37874;53.158;6.766;2023-05-31T12:06:26;5.25;;;1.60;;
51814;SDS011;37874;53.158;6.766;2023-05-31T12:08:53;4.72;;;1.60;;
51814;SDS011;37874;53.158;6.766;2023-05-31T12:11:19;4.80;;;1.60;;
51814;SDS011;37874;53.158;6.766;2023-05-31T12:13:47;5.47;;;1.85;;
51814;SDS011;37874;53.158;6.766;2023-05-31T12:16:13;4.05;;;1.35;;
51814;SDS011;37874;53.158;6.766;2023-05-31T12:18:38;7.90;;;1.52;;
51814;SDS011;37874;53.158;6.766;2023-05-31T12:21:08;3.72;;;1.70;;
51814;SDS011;37874;53.158;6.766;2023-05-31T12:23:55;3.00;;;1.30;;
51814;SDS011;37874;53.158;6.766;2023-05-31T12:26:23;3.45;;;1.25;;
51814;SDS011;37874;53.158;6.766;2023-05-31T12:28:52;4.20;;;1.50;;
51814;SDS011;37874;53.158;6.766;2023-05-31T12:31:21;3.75;;;1.30;;
51814;SDS011;37874;53.158;6.766;2023-05-31T12:33:51;4.95;;;1.60;;
51814;SDS011;37874;53.158;6.766;2023-05-31T12:36:22;4.63;;;1.27;;
51814;SDS011;37874;53.158;6.766;2023-05-31T12:38:52;6.05;;;1.55;;
51814;SDS011;37874;53.158;6.766;2023-05-31T12:41:21;5.80;;;1.50;;
51814;SDS011;37874;53.158;6.766;2023-05-31T12:43:47;5.05;;;1.52;;
51814;SDS011;37874;53.158;6.766;2023-05-31T12:46:17;4.30;;;1.58;;
51814;SDS011;37874;53.158;6.766;2023-05-31T12:48:49;4.60;;;1.30;;
51814;SDS011;37874;53.158;6.766;2023-05-31T12:51:22;5.15;;;1.45;;
51814;SDS011;37874;53.158;6.766;2023-05-31T12:53:47;3.75;;;1.60;;
51814;SDS011;37874;53.158;6.766;2023-05-31T12:56:14;4.60;;;1.50;;
51814;SDS011;37874;53.158;6.766;2023-05-31T12:58:40;3.85;;;1.40;;
51814;SDS011;37874;53.158;6.766;2023-05-31T13:01:06;5.82;;;1.45;;
51814;SDS011;37874;53.158;6.766;2023-05-31T13:03:33;5.78;;;1.30;;
51814;SDS011;37874;53.158;6.766;2023-05-31T13:05:58;5.03;;;1.50;;
51814;SDS011;37874;53.158;6.766;2023-05-31T13:08:24;5.53;;;1.40;;
51814;SDS011;37874;53.158;6.766;2023-05-31T13:10:50;4.20;;;1.50;;
51814;SDS011;37874;53.158;6.766;2023-05-31T13:13:16;2.63;;;0.95;;
51814;SDS011;37874;53.158;6.766;2023-05-31T13:15:41;4.82;;;1.13;;
51814;SDS011;37874;53.158;6.766;2023-05-31T13:18:07;4.72;;;1.20;;
51814;SDS011;37874;53.158;6.766;2023-05-31T13:20:32;4.25;;;1.25;;
51814;SDS011;37874;53.158;6.766;2023-05-31T13:22:58;4.88;;;1.10;;
51814;SDS011;37874;53.158;6.766;2023-05-31T13:25:24;3.28;;;0.98;;
51814;SDS011;37874;53.158;6.766;2023-05-31T13:27:50;4.05;;;1.10;;
51814;SDS011;37874;53.158;6.766;2023-05-31T13:30:15;4.30;;;1.13;;
51814;SDS011;37874;53.158;6.766;2023-05-31T13:32:41;3.13;;;1.00;;
51814;SDS011;37874;53.158;6.766;2023-05-31T13:35:08;3.83;;;1.17;;
51814;SDS011;37874;53.158;6.766;2023-05-31T13:37:35;4.82;;;1.10;;
51814;SDS011;37874;53.158;6.766;2023-05-31T13:40:00;6.45;;;1.27;;
51814;SDS011;37874;53.158;6.766;2023-05-31T13:42:27;4.28;;;1.20;;
51814;SDS011;37874;53.158;6.766;2023-05-31T13:44:52;3.42;;;1.30;;
51814;SDS011;37874;53.158;6.766;2023-05-31T13:47:18;2.42;;;1.00;;
51814;SDS011;37874;53.158;6.766;2023-05-31T13:49:44;8.35;;;1.90;;
51814;SDS011;37874;53.158;6.766;2023-05-31T13:52:11;4.00;;;1.23;;
51814;SDS011;37874;53.158;6.766;2023-05-31T13:54:38;5.40;;;1.13;;
51814;SDS011;37874;53.158;6.766;2023-05-31T13:57:04;3.20;;;1.23;;
51814;SDS011;37874;53.158;6.766;2023-05-31T13:59:30;4.13;;;1.40;;
51814;SDS011;37874;53.158;6.766;2023-05-31T14:01:56;3.65;;;1.20;;
51814;SDS011;37874;53.158;6.766;2023-05-31T14:04:22;5.05;;;0.95;;
51814;SDS011;37874;53.158;6.766;2023-05-31T14:06:48;3.22;;;1.15;;
51814;SDS011;37874;53.158;6.766;2023-05-31T14:09:14;3.85;;;1.40;;
51814;SDS011;37874;53.158;6.766;2023-05-31T14:11:40;4.38;;;1.15;;
51814;SDS011;37874;53.158;6.766;2023-05-31T14:14:06;2.80;;;1.00;;
51814;SDS011;37874;53.158;6.766;2023-05-31T14:16:31;3.45;;;1.10;;
51814;SDS011;37874;53.158;6.766;2023-05-31T14:18:57;2.65;;;1.10;;
51814;SDS011;37874;53.158;6.766;2023-05-31T14:21:22;3.47;;;1.00;;
51814;SDS011;37874;53.158;6.766;2023-05-31T14:23:48;4.35;;;1.20;;
51814;SDS011;37874;53.158;6.766;2023-05-31T14:26:14;4.95;;;1.30;;
51814;SDS011;37874;53.158;6.766;2023-05-31T14:28:39;2.65;;;1.00;;
51814;SDS011;37874;53.158;6.766;2023-05-31T14:31:05;5.80;;;1.35;;
51814;SDS011;37874;53.158;6.766;2023-05-31T14:33:30;4.18;;;1.13;;
51814;SDS011;37874;53.158;6.766;2023-05-31T14:35:56;4.07;;;0.90;;
51814;SDS011;37874;53.158;6.766;2023-05-31T14:38:21;4.80;;;1.08;;
51814;SDS011;37874;53.158;6.766;2023-05-31T14:40:47;4.72;;;1.13;;
51814;SDS011;37874;53.158;6.766;2023-05-31T14:43:13;3.67;;;1.02;;
51814;SDS011;37874;53.158;6.766;2023-05-31T14:45:38;2.60;;;0.85;;
51814;SDS011;37874;53.158;6.766;2023-05-31T14:48:04;2.45;;;0.90;;
51814;SDS011;37874;53.158;6.766;2023-05-31T14:50:29;3.08;;;1.20;;
51814;SDS011;37874;53.158;6.766;2023-05-31T14:53:04;3.40;;;1.00;;
51814;SDS011;37874;53.158;6.766;2023-05-31T14:55:30;6.43;;;1.25;;
51814;SDS011;37874;53.158;6.766;2023-05-31T14:57:55;3.78;;;1.05;;
51814;SDS011;37874;53.158;6.766;2023-05-31T15:00:21;3.13;;;1.17;;
51814;SDS011;37874;53.158;6.766;2023-05-31T15:02:47;2.63;;;1.05;;
51814;SDS011;37874;53.158;6.766;2023-05-31T15:05:13;7.65;;;1.67;;
51814;SDS011;37874;53.158;6.766;2023-05-31T15:07:38;2.70;;;1.02;;
51814;SDS011;37874;53.158;6.766;2023-05-31T15:10:04;3.03;;;0.90;;
51814;SDS011;37874;53.158;6.766;2023-05-31T15:12:30;2.65;;;1.38;;
51814;SDS011;37874;53.158;6.766;2023-05-31T15:14:56;2.78;;;1.17;;
51814;SDS011;37874;53.158;6.766;2023-05-31T15:17:21;4.18;;;0.85;;
51814;SDS011;37874;53.158;6.766;2023-05-31T15:19:47;2.60;;;0.82;;